Back to Top

Language: 

My Weather Underground Personal Weather Station Historical Data with Graphs...

Delerius Weather Station Historical Data
Daily Summary for January 30, 2018 Units:  Metric    English   Both
« Previous Day
Next Day »
Daily Weekly Monthly Yearly Custom
  High: Low: Average:
Temperature: 7.8 °C 3.8 °C 5.2 °C
Dew Point: 3.4 °C 1.4 °C 2.3 °C
Humidity: 93 % 71 % 82 %
Wind Speed: 19.3 km/h 0 km/h 9.2 km/h
Wind Gust: 33.8 km/h - -
Wind:- - WSW
Pressure: 1029.7 hPa 1007.7 hPa -
Precipitation: 0 mm    
Historical Graphs
 
 
Tabular Data for January 30, 2018
Time Temperature Dew Point Pressure Wind Wind Speed Wind Gust Humidity Rainfall Rate (Hourly) solar Conditions
00:01 4 °C 2.1 °C 1029.3 hPa WSW 3.2 km/h 6.4 km/h 87 % 0 mm 0 W/m2
00:06 4 °C 2.1 °C 1029.3 hPa WSW 1.6 km/h 6.4 km/h 87 % 0 mm 0 W/m2
00:11 4.1 °C 2.1 °C 1029.3 hPa West 4.8 km/h 8 km/h 87 % 0 mm 0 W/m2
00:16 4.1 °C 2.1 °C 1029.3 hPa West 6.4 km/h 9.7 km/h 87 % 0 mm 0 W/m2
00:21 4.2 °C 2.2 °C 1029.7 hPa West 8 km/h 12.9 km/h 87 % 0 mm 0 W/m2
00:26 4.2 °C 2.2 °C 1029.3 hPa WNW 11.3 km/h 16.1 km/h 87 % 0 mm 0 W/m2
00:31 4.3 °C 2.3 °C 1029.3 hPa WNW 6.4 km/h 14.5 km/h 87 % 0 mm 0 W/m2
00:36 4.3 °C 2.3 °C 1029.3 hPa NW 4.8 km/h 11.3 km/h 87 % 0 mm 0 W/m2
00:41 4.3 °C 2.3 °C 1029.3 hPa WNW 4.8 km/h 8 km/h 87 % 0 mm 0 W/m2
00:46 4.3 °C 2.3 °C 1029.7 hPa West 6.4 km/h 14.5 km/h 87 % 0 mm 0 W/m2
00:51 4.3 °C 2.3 °C 1029.7 hPa WNW 6.4 km/h 11.3 km/h 87 % 0 mm 0 W/m2
00:56 4.3 °C 2.3 °C 1029.3 hPa WNW 6.4 km/h 11.3 km/h 87 % 0 mm 0 W/m2
01:01 4.3 °C 2.3 °C 1029.7 hPa West 9.7 km/h 16.1 km/h 87 % 0 mm 0 W/m2
01:06 4.3 °C 2.3 °C 1029.3 hPa West 8 km/h 17.7 km/h 87 % 0 mm 0 W/m2
01:11 4.3 °C 2.3 °C 1029.3 hPa WNW 11.3 km/h 20.9 km/h 87 % 0 mm 0 W/m2
01:16 4.3 °C 2.3 °C 1029.3 hPa West 12.9 km/h 17.7 km/h 87 % 0 mm 0 W/m2
01:18 4.3 °C 2.3 °C 1029.3 hPa WNW 14.5 km/h 19.3 km/h 87 % 0 mm 0 W/m2
01:23 4.3 °C 2.3 °C 1029.3 hPa WNW 11.3 km/h 17.7 km/h 87 % 0 mm 0 W/m2
01:28 4.3 °C 2.3 °C 1029.3 hPa WNW 12.9 km/h 19.3 km/h 87 % 0 mm 0 W/m2
01:33 4.3 °C 2.3 °C 1029.3 hPa West 11.3 km/h 16.1 km/h 87 % 0 mm 0 W/m2
01:38 4.3 °C 2.3 °C 1029.3 hPa West 17.7 km/h 29 km/h 87 % 0 mm 0 W/m2
01:43 4.3 °C 2.3 °C 1029.3 hPa WNW 17.7 km/h 29 km/h 87 % 0 mm 0 W/m2
01:48 4.3 °C 2.3 °C 1029.3 hPa WNW 14.5 km/h 29 km/h 87 % 0 mm 0 W/m2
01:53 4.3 °C 2.3 °C 1029.3 hPa West 12.9 km/h 19.3 km/h 87 % 0 mm 0 W/m2
01:58 4.3 °C 2.5 °C 1029 hPa West 14.5 km/h 20.9 km/h 88 % 0 mm 0 W/m2
02:03 4.3 °C 2.5 °C 1029 hPa West 11.3 km/h 20.9 km/h 88 % 0 mm 0 W/m2
02:08 4.3 °C 2.5 °C 1029 hPa West 11.3 km/h 16.1 km/h 88 % 0 mm 0 W/m2
02:13 4.3 °C 2.5 °C 1028.7 hPa West 9.7 km/h 14.5 km/h 88 % 0 mm 0 W/m2
02:19 4.3 °C 2.5 °C 1028.7 hPa WNW 11.3 km/h 17.7 km/h 88 % 0 mm 0 W/m2
02:24 4.3 °C 2.5 °C 1028.7 hPa WNW 9.7 km/h 19.3 km/h 88 % 0 mm 0 W/m2
02:29 4.3 °C 2.5 °C 1028.7 hPa WNW 16.1 km/h 24.1 km/h 88 % 0 mm 0 W/m2
02:34 4.3 °C 2.5 °C 1028.3 hPa WNW 14.5 km/h 22.5 km/h 88 % 0 mm 0 W/m2
02:39 4.3 °C 2.3 °C 1028.7 hPa West 16.1 km/h 22.5 km/h 87 % 0 mm 0 W/m2
02:44 4.4 °C 2.4 °C 1028.3 hPa West 17.7 km/h 24.1 km/h 87 % 0 mm 0 W/m2
02:49 4.3 °C 2.3 °C 1028.3 hPa WNW 16.1 km/h 32.2 km/h 87 % 0 mm 0 W/m2
02:54 4.3 °C 2.5 °C 1028.3 hPa WNW 17.7 km/h 29 km/h 88 % 0 mm 0 W/m2
02:59 4.4 °C 2.6 °C 1028.3 hPa WNW 16.1 km/h 25.7 km/h 88 % 0 mm 0 W/m2
03:04 4.4 °C 2.6 °C 1028.3 hPa West 19.3 km/h 32.2 km/h 88 % 0 mm 0 W/m2
03:09 4.5 °C 2.7 °C 1028.3 hPa WNW 16.1 km/h 29 km/h 88 % 0 mm 0 W/m2
03:14 4.6 °C 2.6 °C 1028.3 hPa West 17.7 km/h 24.1 km/h 87 % 0 mm 0 W/m2
03:19 4.7 °C 2.7 °C 1028.3 hPa West 12.9 km/h 19.3 km/h 87 % 0 mm 0 W/m2
03:24 4.6 °C 2.6 °C 1028.3 hPa WSW 12.9 km/h 17.7 km/h 87 % 0 mm 0 W/m2
03:29 4.5 °C 2.5 °C 1028 hPa WSW 12.9 km/h 17.7 km/h 87 % 0 mm 0 W/m2
03:34 4.4 °C 2.4 °C 1028 hPa WSW 11.3 km/h 16.1 km/h 87 % 0 mm 0 W/m2
03:39 4.3 °C 2.5 °C 1028 hPa WSW 8 km/h 12.9 km/h 88 % 0 mm 0 W/m2
03:44 4.3 °C 2.5 °C 1028 hPa SW 9.7 km/h 16.1 km/h 88 % 0 mm 0 W/m2
03:49 4.3 °C 2.5 °C 1028 hPa WSW 6.4 km/h 12.9 km/h 88 % 0 mm 0 W/m2
03:54 4.3 °C 2.5 °C 1028 hPa WNW 1.6 km/h 6.4 km/h 88 % 0 mm 0 W/m2
03:59 4.4 °C 2.6 °C 1028 hPa West 16.1 km/h 30.6 km/h 88 % 0 mm 0 W/m2
04:04 4.4 °C 2.6 °C 1028.3 hPa West 8 km/h 14.5 km/h 88 % 0 mm 0 W/m2
04:09 4.5 °C 2.7 °C 1028 hPa West 9.7 km/h 14.5 km/h 88 % 0 mm 0 W/m2
04:14 4.5 °C 2.7 °C 1028 hPa West 11.3 km/h 20.9 km/h 88 % 0 mm 0 W/m2
04:19 4.5 °C 2.7 °C 1028.3 hPa West 9.7 km/h 17.7 km/h 88 % 0 mm 0 W/m2
04:24 4.5 °C 2.7 °C 1028 hPa WNW 8 km/h 16.1 km/h 88 % 0 mm 0 W/m2
04:29 4.4 °C 2.6 °C 1028 hPa West 6.4 km/h 11.3 km/h 88 % 0 mm 0 W/m2
04:34 4.4 °C 2.6 °C 1028 hPa West 1.6 km/h 8 km/h 88 % 0 mm 0 W/m2
04:39 4.3 °C 2.5 °C 1028 hPa West 6.4 km/h 11.3 km/h 88 % 0 mm 0 W/m2
04:44 4.2 °C 2.4 °C 1028 hPa West 11.3 km/h 16.1 km/h 88 % 0 mm 0 W/m2
04:49 4.2 °C 2.4 °C 1028 hPa West 3.2 km/h 9.7 km/h 88 % 0 mm 0 W/m2
04:54 4.1 °C 2.3 °C 1028 hPa West 3.2 km/h 11.3 km/h 88 % 0 mm 0 W/m2
04:59 4.1 °C 2.3 °C 1028 hPa Calm   4.8 km/h 88 % 0 mm 0 W/m2
05:04 4 °C 2.3 °C 1028 hPa WSW 1.6 km/h 9.7 km/h 89 % 0 mm 0 W/m2
05:09 4 °C 2.3 °C 1028 hPa WSW 9.7 km/h 16.1 km/h 89 % 0 mm 0 W/m2
05:14 4 °C 2.2 °C 1028 hPa West 8 km/h 17.7 km/h 88 % 0 mm 0 W/m2
05:19 4 °C 2.2 °C 1027.7 hPa WSW 8 km/h 12.9 km/h 88 % 0 mm 0 W/m2
05:24 4 °C 2.2 °C 1027.7 hPa West 4.8 km/h 11.3 km/h 88 % 0 mm 0 W/m2
05:29 3.9 °C 2.1 °C 1027.7 hPa WSW 8 km/h 12.9 km/h 88 % 0 mm 0 W/m2
05:34 3.9 °C 2.1 °C 1027.7 hPa WNW 4.8 km/h 9.7 km/h 88 % 0 mm 0 W/m2
05:40 3.9 °C 2.1 °C 1027.7 hPa West 6.4 km/h 14.5 km/h 88 % 0 mm 0 W/m2
05:45 3.9 °C 2.1 °C 1027.7 hPa WNW 1.6 km/h 9.7 km/h 88 % 0 mm 0 W/m2
05:50 3.9 °C 2.1 °C 1027.7 hPa SW 1.6 km/h 6.4 km/h 88 % 0 mm 0 W/m2
05:55 3.9 °C 2.1 °C 1027.7 hPa Calm     88 % 0 mm 0 W/m2
06:00 3.9 °C 2.1 °C 1027.7 hPa Calm     88 % 0 mm 0 W/m2
06:05 3.8 °C 2 °C 1027.7 hPa NW 1.6 km/h 12.9 km/h 88 % 0 mm 0 W/m2
06:10 3.9 °C 2.1 °C 1027.7 hPa WSW 9.7 km/h 14.5 km/h 88 % 0 mm 0 W/m2
06:15 4.1 °C 2.3 °C 1027.3 hPa West 8 km/h 12.9 km/h 88 % 0 mm 0 W/m2
06:20 4.1 °C 2.3 °C 1027.7 hPa WSW 8 km/h 14.5 km/h 88 % 0 mm 0 W/m2
06:25 4.1 °C 2.1 °C 1027.3 hPa West 4.8 km/h 12.9 km/h 87 % 0 mm 0 W/m2
06:30 4.1 °C 2.1 °C 1027.7 hPa West 6.4 km/h 12.9 km/h 87 % 0 mm 0 W/m2
06:35 4.1 °C 2.1 °C 1027.7 hPa WSW 3.2 km/h 8 km/h 87 % 0 mm 0 W/m2
06:40 4.1 °C 2.1 °C 1027.7 hPa West 6.4 km/h 12.9 km/h 87 % 0 mm 0 W/m2
06:45 4.1 °C 2.1 °C 1027.7 hPa West 9.7 km/h 12.9 km/h 87 % 0 mm 0 W/m2
06:50 4.1 °C 2.1 °C 1027.3 hPa WNW 14.5 km/h 20.9 km/h 87 % 0 mm 0 W/m2
06:55 4.2 °C 2.2 °C 1027.3 hPa West 14.5 km/h 20.9 km/h 87 % 0 mm 0 W/m2
07:00 4.3 °C 2.2 °C 1027 hPa West 16.1 km/h 20.9 km/h 86 % 0 mm 0 W/m2
07:05 4.4 °C 2.3 °C 1027.3 hPa West 14.5 km/h 20.9 km/h 86 % 0 mm 0 W/m2
07:10 4.3 °C 2.2 °C 1027 hPa WNW 14.5 km/h 20.9 km/h 86 % 0 mm 0 W/m2
07:15 4.3 °C 2.2 °C 1027 hPa West 9.7 km/h 14.5 km/h 86 % 0 mm 0 W/m2
07:20 4.3 °C 2.2 °C 1027 hPa WNW 8 km/h 12.9 km/h 86 % 0 mm 0 W/m2
07:25 4.2 °C 2.1 °C 1027.3 hPa WNW 4.8 km/h 11.3 km/h 86 % 0 mm 0 W/m2
07:30 4.1 °C 1.9 °C 1027.3 hPa WNW 3.2 km/h 6.4 km/h 86 % 0 mm 0 W/m2
07:35 4 °C 1.9 °C 1027.3 hPa NW 4.8 km/h 8 km/h 86 % 0 mm 0 W/m2
07:40 3.9 °C 1.8 °C 1027.3 hPa NW 6.4 km/h 11.3 km/h 86 % 0 mm 0 W/m2
07:45 3.8 °C 1.8 °C 1027.3 hPa WNW 8 km/h 12.9 km/h 87 % 0 mm 0 W/m2
07:50 3.8 °C 1.8 °C 1027.3 hPa WNW 9.7 km/h 14.5 km/h 87 % 0 mm 0 W/m2
07:55 3.8 °C 2 °C 1027.3 hPa WNW 9.7 km/h 12.9 km/h 88 % 0 mm 0 W/m2
08:00 3.8 °C 2 °C 1027.3 hPa WNW 9.7 km/h 16.1 km/h 88 % 0 mm 5 W/m2
08:06 3.9 °C 2.1 °C 1027.3 hPa WNW 11.3 km/h 16.1 km/h 88 % 0 mm 5 W/m2
08:11 3.9 °C 2.1 °C 1027.3 hPa West 11.3 km/h 17.7 km/h 88 % 0 mm 7 W/m2
08:16 4 °C 2.2 °C 1027.7 hPa West 9.7 km/h 19.3 km/h 88 % 0 mm 11 W/m2
08:21 4.1 °C 2.1 °C 1027.3 hPa West 9.7 km/h 17.7 km/h 87 % 0 mm 14 W/m2
08:26 4.1 °C 2.1 °C 1027.3 hPa West 4.8 km/h 8 km/h 87 % 0 mm 19 W/m2
08:31 4.1 °C 2.1 °C 1027.3 hPa NW 4.8 km/h 9.7 km/h 87 % 0 mm 25 W/m2
08:36 4.2 °C 2.2 °C 1027.3 hPa WSW 4.8 km/h 11.3 km/h 87 % 0 mm 30 W/m2
08:41 4.2 °C 2.2 °C 1027.3 hPa West 4.8 km/h 11.3 km/h 87 % 0 mm 35 W/m2
08:46 4.1 °C 1.9 °C 1027 hPa West 1.6 km/h 6.4 km/h 86 % 0 mm 40 W/m2
08:51 4.1 °C 2.1 °C 1027 hPa Calm   1.6 km/h 87 % 0 mm 46 W/m2
08:56 4.1 °C 2.1 °C 1027 hPa Calm     87 % 0 mm 53 W/m2
09:01 4 °C 1.9 °C 1027 hPa Calm   1.6 km/h 86 % 0 mm 53 W/m2
09:06 4 °C 2.1 °C 1027 hPa Calm   1.6 km/h 87 % 0 mm 53 W/m2
09:11 3.9 °C 1.9 °C 1026.6 hPa Calm     87 % 0 mm 63 W/m2
09:16 4 °C 2.2 °C 1026.6 hPa West 4.8 km/h 6.4 km/h 88 % 0 mm 84 W/m2
09:21 4.1 °C 2.3 °C 1027 hPa East 1.6 km/h 3.2 km/h 88 % 0 mm 104 W/m2
09:26 4.2 °C 2.4 °C 1027 hPa Calm     88 % 0 mm 86 W/m2
09:31 4.3 °C 2.5 °C 1027 hPa Calm     88 % 0 mm 95 W/m2
09:36 4.4 °C 2.6 °C 1026.6 hPa Calm     88 % 0 mm 102 W/m2
09:41 4.6 °C 2.6 °C 1026.6 hPa Calm   1.6 km/h 87 % 0 mm 144 W/m2
09:46 4.8 °C 2.8 °C 1026.6 hPa ENE 1.6 km/h 8 km/h 87 % 0 mm 195 W/m2
09:51 5 °C 2.8 °C 1026.6 hPa ENE 1.6 km/h 4.8 km/h 86 % 0 mm 181 W/m2
09:57 5.2 °C 3.1 °C 1026.6 hPa Calm     86 % 0 mm 151 W/m2
10:02 5.5 °C 3 °C 1026.6 hPa Calm     84 % 0 mm 111 W/m2
10:07 5.6 °C 2.9 °C 1026.3 hPa ENE 1.6 km/h 3.2 km/h 83 % 0 mm 93 W/m2
10:12 5.6 °C 2.8 °C 1026.3 hPa Calm     82 % 0 mm 102 W/m2
10:17 5.6 °C 2.8 °C 1026.3 hPa Calm     82 % 0 mm 102 W/m2
10:22 5.6 °C 2.9 °C 1026.3 hPa Calm     83 % 0 mm 218 W/m2
10:27 5.8 °C 3.1 °C 1026 hPa Calm   1.6 km/h 83 % 0 mm 234 W/m2
10:32 6 °C 3.2 °C 1026 hPa ENE 3.2 km/h 6.4 km/h 82 % 0 mm 244 W/m2
10:37 6.2 °C 3.2 °C 1026 hPa ESE 1.6 km/h 3.2 km/h 81 % 0 mm 264 W/m2
10:42 6.4 °C 3.4 °C 1026 hPa Calm   3.2 km/h 81 % 0 mm 285 W/m2
10:47 6.6 °C 3.2 °C 1026 hPa ESE 1.6 km/h 6.4 km/h 79 % 0 mm 308 W/m2
10:52 6.8 °C 3.2 °C 1026 hPa Calm     78 % 0 mm 141 W/m2
10:57 7 °C 3.2 °C 1026 hPa WSW 1.6 km/h 6.4 km/h 77 % 0 mm 225 W/m2
11:02 7.1 °C 3.3 °C 1026 hPa WNW 4.8 km/h 9.7 km/h 77 % 0 mm 308 W/m2
11:07 7.1 °C 3.2 °C 1026 hPa WNW 8 km/h 14.5 km/h 76 % 0 mm 348 W/m2
11:12 7.2 °C 3.1 °C 1026 hPa West 11.3 km/h 16.1 km/h 75 % 0 mm 345 W/m2
11:17 7.4 °C 3.3 °C 1026 hPa West 11.3 km/h 22.5 km/h 75 % 0 mm 371 W/m2
11:22 7.5 °C 3.2 °C 1025.6 hPa WSW 6.4 km/h 11.3 km/h 74 % 0 mm 369 W/m2
11:27 7.7 °C 3.3 °C 1025.6 hPa WNW 6.4 km/h 11.3 km/h 74 % 0 mm 388 W/m2
11:32 7.7 °C 3.2 °C 1025.3 hPa WSW 6.4 km/h 9.7 km/h 73 % 0 mm 185 W/m2
11:37 7.7 °C 3.2 °C 1025.3 hPa SSW 6.4 km/h 9.7 km/h 73 % 0 mm 325 W/m2
11:42 7.6 °C 3.3 °C 1024.9 hPa SW 3.2 km/h 9.7 km/h 74 % 0 mm 160 W/m2
11:47 7.7 °C 3.3 °C 1024.9 hPa WSW 3.2 km/h 8 km/h 74 % 0 mm 186 W/m2
11:52 7.8 °C 3.4 °C 1024.9 hPa WNW 6.4 km/h 11.3 km/h 74 % 0 mm 220 W/m2
11:57 7.8 °C 3.4 °C 1024.6 hPa West 6.4 km/h 14.5 km/h 74 % 0 mm 179 W/m2
12:02 7.8 °C 3.3 °C 1024.9 hPa WSW 8 km/h 14.5 km/h 73 % 0 mm 220 W/m2
12:07 7.7 °C 2.9 °C 1024.6 hPa West 16.1 km/h 22.5 km/h 72 % 0 mm 260 W/m2
12:12 7.7 °C 2.9 °C 1024.6 hPa West 8 km/h 16.1 km/h 72 % 0 mm 179 W/m2
12:17 7.7 °C 2.9 °C 1024.6 hPa WSW 12.9 km/h 24.1 km/h 72 % 0 mm 156 W/m2
12:22 7.5 °C 2.6 °C 1024.3 hPa SW 11.3 km/h 19.3 km/h 71 % 0 mm 146 W/m2
12:27 7.4 °C 2.7 °C 1024.3 hPa WSW 9.7 km/h 20.9 km/h 72 % 0 mm 137 W/m2
12:32 7.2 °C 2.3 °C 1024.3 hPa West 12.9 km/h 19.3 km/h 71 % 0 mm 132 W/m2
12:37 7.1 °C 2.4 °C 1024.3 hPa West 9.7 km/h 12.9 km/h 72 % 0 mm 123 W/m2
12:42 7.1 °C 2.6 °C 1024.3 hPa WNW 8 km/h 14.5 km/h 73 % 0 mm 121 W/m2
12:47 7.1 °C 2.6 °C 1023.9 hPa WNW 9.7 km/h 17.7 km/h 73 % 0 mm 116 W/m2
12:53 7.1 °C 2.6 °C 1023.9 hPa West 6.4 km/h 12.9 km/h 73 % 0 mm 120 W/m2
12:57 7 °C 2.5 °C 1023.9 hPa SW 11.3 km/h 16.1 km/h 73 % 0 mm 132 W/m2
13:02 6.9 °C 2.6 °C 1023.9 hPa WSW 9.7 km/h 14.5 km/h 74 % 0 mm 142 W/m2
13:08 6.9 °C 2.4 °C 1023.9 hPa West 6.4 km/h 11.3 km/h 73 % 0 mm 148 W/m2
13:13 6.9 °C 2.6 °C 1023.6 hPa WSW 6.4 km/h 17.7 km/h 74 % 0 mm 151 W/m2
13:18 6.9 °C 2.6 °C 1023.6 hPa WSW 8 km/h 11.3 km/h 74 % 0 mm 146 W/m2
13:23 6.9 °C 2.6 °C 1023.2 hPa WSW 11.3 km/h 17.7 km/h 74 % 0 mm 137 W/m2
13:28 6.8 °C 2.5 °C 1023.2 hPa WSW 12.9 km/h 17.7 km/h 74 % 0 mm 130 W/m2
13:33 6.8 °C 2.7 °C 1022.9 hPa WSW 12.9 km/h 22.5 km/h 75 % 0 mm 130 W/m2
13:38 6.7 °C 2.4 °C 1022.9 hPa WSW 16.1 km/h 25.7 km/h 74 % 0 mm 125 W/m2
13:43 6.8 °C 2.7 °C 1022.6 hPa WSW 12.9 km/h 20.9 km/h 75 % 0 mm 146 W/m2
13:48 6.8 °C 2.7 °C 1022.6 hPa SW 9.7 km/h 19.3 km/h 75 % 0 mm 139 W/m2
13:53 6.8 °C 2.7 °C 1022.6 hPa SW 17.7 km/h 24.1 km/h 75 % 0 mm 128 W/m2
13:58 6.7 °C 2.4 °C 1022.6 hPa WSW 19.3 km/h 25.7 km/h 74 % 0 mm 135 W/m2
14:03 6.7 °C 2.4 °C 1022.2 hPa WSW 14.5 km/h 24.1 km/h 74 % 0 mm 127 W/m2
14:08 6.7 °C 2.2 °C 1022.2 hPa WSW 14.5 km/h 22.5 km/h 73 % 0 mm 125 W/m2
14:13 6.7 °C 2.2 °C 1022.2 hPa WSW 14.5 km/h 20.9 km/h 73 % 0 mm 113 W/m2
14:18 6.7 °C 2.2 °C 1022.2 hPa WSW 17.7 km/h 24.1 km/h 73 % 0 mm 116 W/m2
14:23 6.7 °C 2.2 °C 1022.2 hPa WSW 16.1 km/h 24.1 km/h 73 % 0 mm 121 W/m2
14:28 6.7 °C 2 °C 1021.9 hPa West 17.7 km/h 25.7 km/h 72 % 0 mm 105 W/m2
14:33 6.7 °C 2.2 °C 1021.9 hPa WSW 14.5 km/h 20.9 km/h 73 % 0 mm 91 W/m2
14:38 6.6 °C 2.1 °C 1021.9 hPa WSW 16.1 km/h 20.9 km/h 73 % 0 mm 76 W/m2
14:43 6.6 °C 2.1 °C 1022.2 hPa West 16.1 km/h 24.1 km/h 73 % 0 mm 56 W/m2
14:48 6.6 °C 2.1 °C 1021.9 hPa WSW 16.1 km/h 24.1 km/h 73 % 0 mm 62 W/m2
14:53 6.6 °C 2.1 °C 1021.6 hPa WSW 11.3 km/h 14.5 km/h 73 % 0 mm 49 W/m2
14:58 6.6 °C 2.1 °C 1021.6 hPa SW 8 km/h 14.5 km/h 73 % 0 mm 53 W/m2
15:03 6.6 °C 2.1 °C 1021.6 hPa SW 9.7 km/h 14.5 km/h 73 % 0 mm 47 W/m2
15:08 6.5 °C 2 °C 1021.6 hPa West 12.9 km/h 20.9 km/h 73 % 0 mm 40 W/m2
15:13 6.4 °C 1.7 °C 1021.2 hPa West 17.7 km/h 29 km/h 72 % 0 mm 28 W/m2
15:18 6.4 °C 1.7 °C 1021.2 hPa WSW 16.1 km/h 20.9 km/h 72 % 0 mm 28 W/m2
15:23 6.4 °C 1.9 °C 1021.2 hPa WSW 11.3 km/h 17.7 km/h 73 % 0 mm 37 W/m2
15:28 6.4 °C 2.1 °C 1020.9 hPa WSW 12.9 km/h 17.7 km/h 74 % 0 mm 40 W/m2
15:33 6.3 °C 2 °C 1020.9 hPa WSW 12.9 km/h 19.3 km/h 74 % 0 mm 44 W/m2
15:38 6.3 °C 1.8 °C 1020.5 hPa WSW 12.9 km/h 19.3 km/h 73 % 0 mm 33 W/m2
15:43 6.3 °C 1.8 °C 1020.5 hPa WSW 8 km/h 12.9 km/h 73 % 0 mm 28 W/m2
15:48 6.2 °C 1.9 °C 1020.2 hPa SW 11.3 km/h 17.7 km/h 74 % 0 mm 30 W/m2
15:53 6.2 °C 1.9 °C 1020.2 hPa WSW 11.3 km/h 17.7 km/h 74 % 0 mm 30 W/m2
15:58 6.2 °C 1.9 °C 1019.9 hPa WSW 4.8 km/h 9.7 km/h 74 % 0 mm 26 W/m2
16:04 6.1 °C 1.8 °C 1019.9 hPa SW 8 km/h 16.1 km/h 74 % 0 mm 25 W/m2
16:09 6.1 °C 2 °C 1019.9 hPa SW 4.8 km/h 12.9 km/h 75 % 0 mm 21 W/m2
16:14 6.1 °C 2 °C 1019.5 hPa SW 6.4 km/h 14.5 km/h 75 % 0 mm 18 W/m2
16:19 6 °C 1.9 °C 1019.5 hPa SSW 6.4 km/h 11.3 km/h 75 % 0 mm 14 W/m2
16:24 5.9 °C 1.8 °C 1019.2 hPa South 9.7 km/h 14.5 km/h 75 % 0 mm 11 W/m2
16:29 5.9 °C 1.8 °C 1019.2 hPa SSW 6.4 km/h 12.9 km/h 75 % 0 mm 9 W/m2
16:34 5.9 °C 2 °C 1019.2 hPa SW 6.4 km/h 12.9 km/h 76 % 0 mm 7 W/m2
16:39 5.8 °C 1.9 °C 1018.8 hPa SW 9.7 km/h 16.1 km/h 76 % 0 mm 5 W/m2
16:44 5.8 °C 1.9 °C 1018.8 hPa SSW 12.9 km/h 19.3 km/h 76 % 0 mm 0 W/m2
16:49 5.7 °C 1.8 °C 1018.8 hPa SW 9.7 km/h 17.7 km/h 76 % 0 mm 0 W/m2
16:54 5.7 °C 1.8 °C 1018.5 hPa SW 12.9 km/h 20.9 km/h 76 % 0 mm 0 W/m2
16:59 5.7 °C 1.8 °C 1018.5 hPa SW 14.5 km/h 22.5 km/h 76 % 0 mm 0 W/m2
17:04 5.6 °C 1.9 °C 1018.5 hPa SW 14.5 km/h 20.9 km/h 77 % 0 mm 0 W/m2
17:09 5.6 °C 1.9 °C 1018.5 hPa SW 12.9 km/h 20.9 km/h 77 % 0 mm 0 W/m2
17:14 5.6 °C 1.9 °C 1018.2 hPa SW 11.3 km/h 17.7 km/h 77 % 0 mm 0 W/m2
17:19 5.6 °C 1.9 °C 1017.8 hPa SW 12.9 km/h 19.3 km/h 77 % 0 mm 0 W/m2
17:24 5.6 °C 1.9 °C 1017.8 hPa SW 14.5 km/h 19.3 km/h 77 % 0 mm 0 W/m2
17:29 5.5 °C 1.8 °C 1017.8 hPa SW 17.7 km/h 29 km/h 77 % 0 mm 0 W/m2
17:34 5.6 °C 1.7 °C 1017.8 hPa SW 12.9 km/h 20.9 km/h 76 % 0 mm 0 W/m2
17:39 5.5 °C 1.8 °C 1017.5 hPa SW 12.9 km/h 19.3 km/h 77 % 0 mm 0 W/m2
17:44 5.5 °C 1.6 °C 1017.5 hPa WSW 14.5 km/h 22.5 km/h 76 % 0 mm 0 W/m2
17:50 5.4 °C 1.7 °C 1017.5 hPa SW 16.1 km/h 25.7 km/h 77 % 0 mm 0 W/m2
17:55 5.4 °C 1.5 °C 1017.5 hPa SW 19.3 km/h 33.8 km/h 76 % 0 mm 0 W/m2
18:00 5.4 °C 1.7 °C 1017.2 hPa SW 17.7 km/h 30.6 km/h 77 % 0 mm 0 W/m2
18:05 5.4 °C 1.7 °C 1016.8 hPa WSW 17.7 km/h 30.6 km/h 77 % 0 mm 0 W/m2
18:10 5.4 °C 1.7 °C 1017.2 hPa WSW 17.7 km/h 29 km/h 77 % 0 mm 0 W/m2
18:15 5.3 °C 1.6 °C 1017.2 hPa WSW 17.7 km/h 25.7 km/h 77 % 0 mm 0 W/m2
18:20 5.3 °C 1.6 °C 1017.2 hPa WSW 17.7 km/h 25.7 km/h 77 % 0 mm 0 W/m2
18:25 5.3 °C 1.6 °C 1016.8 hPa WSW 17.7 km/h 25.7 km/h 77 % 0 mm 0 W/m2
18:30 5.3 °C 1.6 °C 1016.8 hPa WSW 16.1 km/h 22.5 km/h 77 % 0 mm 0 W/m2
18:35 5.3 °C 1.6 °C 1016.8 hPa WSW 16.1 km/h 20.9 km/h 77 % 0 mm 0 W/m2
18:40 5.3 °C 1.6 °C 1016.8 hPa WSW 14.5 km/h 20.9 km/h 77 % 0 mm 0 W/m2
18:45 5.3 °C 1.6 °C 1016.8 hPa SW 12.9 km/h 20.9 km/h 77 % 0 mm 0 W/m2
18:50 5.3 °C 1.6 °C 1016.8 hPa SW 11.3 km/h 14.5 km/h 77 % 0 mm 0 W/m2
18:55 5.3 °C 1.4 °C 1016.5 hPa WSW 9.7 km/h 12.9 km/h 76 % 0 mm 0 W/m2
19:00 5.3 °C 1.4 °C 1016.5 hPa WSW 11.3 km/h 14.5 km/h 76 % 0 mm 0 W/m2
19:05 5.3 °C 1.4 °C 1016.1 hPa WSW 8 km/h 14.5 km/h 76 % 0 mm 0 W/m2
19:10 5.4 °C 1.5 °C 1016.1 hPa SW 6.4 km/h 12.9 km/h 76 % 0 mm 0 W/m2
19:15 5.4 °C 1.5 °C 1016.1 hPa SSW 4.8 km/h 11.3 km/h 76 % 0 mm 0 W/m2
19:20 5.4 °C 1.5 °C 1015.8 hPa SW 8 km/h 12.9 km/h 76 % 0 mm 0 W/m2
19:25 5.5 °C 1.6 °C 1015.8 hPa South 8 km/h 16.1 km/h 76 % 0 mm 0 W/m2
19:30 5.4 °C 1.5 °C 1015.5 hPa South 6.4 km/h 11.3 km/h 76 % 0 mm 0 W/m2
19:35 5.4 °C 1.5 °C 1015.5 hPa SSE 4.8 km/h 9.7 km/h 76 % 0 mm 0 W/m2
19:37 5.4 °C 1.5 °C 1015.5 hPa SE 4.8 km/h 9.7 km/h 76 % 0 mm 0 W/m2
19:42 5.4 °C 1.7 °C 1015.5 hPa SSE 8 km/h 14.5 km/h 77 % 0 mm 0 W/m2
19:47 5.3 °C 1.6 °C 1015.1 hPa SE 9.7 km/h 14.5 km/h 77 % 0 mm 0 W/m2
19:52 5.3 °C 1.8 °C 1014.8 hPa SSE 9.7 km/h 19.3 km/h 78 % 0 mm 0 W/m2
19:57 5.3 °C 1.8 °C 1014.8 hPa SE 11.3 km/h 17.7 km/h 78 % 0 mm 0 W/m2
20:02 5.2 °C 1.8 °C 1014.8 hPa SSE 9.7 km/h 16.1 km/h 79 % 0 mm 0 W/m2
20:07 5.2 °C 1.8 °C 1014.8 hPa SSE 8 km/h 12.9 km/h 79 % 0 mm 0 W/m2
20:12 5.2 °C 1.8 °C 1014.4 hPa SE 11.3 km/h 16.1 km/h 79 % 0 mm 0 W/m2
20:17 5.1 °C 1.9 °C 1014.4 hPa SE 6.4 km/h 14.5 km/h 80 % 0 mm 0 W/m2
20:22 5.1 °C 1.9 °C 1014.4 hPa SSE 8 km/h 12.9 km/h 80 % 0 mm 0 W/m2
20:27 5.1 °C 2.1 °C 1014.1 hPa SW 1.6 km/h 8 km/h 81 % 0 mm 0 W/m2
20:32 5.1 °C 2.1 °C 1013.8 hPa SW 3.2 km/h 14.5 km/h 81 % 0 mm 0 W/m2
20:37 5 °C 2 °C 1013.8 hPa SW 9.7 km/h 14.5 km/h 81 % 0 mm 0 W/m2
20:42 5 °C 2 °C 1013.4 hPa SSW 14.5 km/h 22.5 km/h 81 % 0 mm 0 W/m2
20:47 4.9 °C 2.1 °C 1013.4 hPa SW 16.1 km/h 24.1 km/h 82 % 0 mm 0 W/m2
20:52 4.9 °C 2.1 °C 1013.4 hPa SW 17.7 km/h 25.7 km/h 82 % 0 mm 0 W/m2
20:57 4.9 °C 2.1 °C 1013.1 hPa SSW 16.1 km/h 25.7 km/h 82 % 0 mm 0 W/m2
21:02 4.9 °C 2.1 °C 1013.1 hPa SW 17.7 km/h 25.7 km/h 82 % 0 mm 0 W/m2
21:07 4.9 °C 2.1 °C 1012.8 hPa SSW 17.7 km/h 22.5 km/h 82 % 0 mm 0 W/m2
21:12 4.8 °C 2 °C 1012.8 hPa SSW 12.9 km/h 19.3 km/h 82 % 0 mm 0 W/m2
21:17 4.8 °C 2.2 °C 1012.4 hPa SSW 11.3 km/h 17.7 km/h 83 % 0 mm 0 W/m2
21:22 4.7 °C 2.1 °C 1012.4 hPa SSW 9.7 km/h 17.7 km/h 83 % 0 mm 0 W/m2
21:28 4.7 °C 2.1 °C 1012.1 hPa SSW 12.9 km/h 24.1 km/h 83 % 0 mm 0 W/m2
21:33 4.6 °C 2.1 °C 1012.4 hPa SSW 11.3 km/h 20.9 km/h 84 % 0 mm 0 W/m2
21:38 4.6 °C 2.1 °C 1012.1 hPa SSW 8 km/h 16.1 km/h 84 % 0 mm 0 W/m2
21:43 4.6 °C 2.1 °C 1011.7 hPa SSW 6.4 km/h 12.9 km/h 84 % 0 mm 0 W/m2
21:48 4.6 °C 2.3 °C 1011.7 hPa SSE 3.2 km/h 11.3 km/h 85 % 0 mm 0 W/m2
21:53 4.6 °C 2.4 °C 1011.4 hPa SSW 6.4 km/h 11.3 km/h 86 % 0 mm 0 W/m2
21:58 4.6 °C 2.4 °C 1011.4 hPa South 4.8 km/h 12.9 km/h 86 % 0 mm 0 W/m2
22:06 4.6 °C 2.6 °C 1011.4 hPa SSW 4.8 km/h 8 km/h 87 % 0 mm 0 W/m2
22:11 4.6 °C 2.6 °C 1011.1 hPa South 8 km/h 17.7 km/h 87 % 0 mm 0 W/m2
22:16 4.6 °C 2.6 °C 1011.1 hPa SSW 6.4 km/h 12.9 km/h 87 % 0 mm 0 W/m2
22:21 4.6 °C 2.8 °C 1010.7 hPa South 11.3 km/h 16.1 km/h 88 % 0 mm 0 W/m2
22:26 4.6 °C 2.8 °C 1010.7 hPa SSW 9.7 km/h 16.1 km/h 88 % 0 mm 0 W/m2
22:31 4.6 °C 2.8 °C 1010.4 hPa SSW 9.7 km/h 16.1 km/h 88 % 0 mm 0 W/m2
22:36 4.6 °C 2.9 °C 1010.4 hPa South 8 km/h 11.3 km/h 89 % 0 mm 0 W/m2
22:41 4.6 °C 2.9 °C 1010.4 hPa SSW 11.3 km/h 16.1 km/h 89 % 0 mm 0 W/m2
22:46 4.5 °C 3 °C 1010 hPa SSW 9.7 km/h 14.5 km/h 90 % 0 mm 0 W/m2
22:51 4.4 °C 2.9 °C 1010 hPa SSW 8 km/h 12.9 km/h 90 % 0 mm 0 W/m2
22:56 4.4 °C 3.1 °C 1009.7 hPa South 9.7 km/h 16.1 km/h 91 % 0 mm 0 W/m2
23:01 4.3 °C 2.9 °C 1009.4 hPa SSW 9.7 km/h 16.1 km/h 91 % 0 mm 0 W/m2
23:06 4.3 °C 3.1 °C 1009.4 hPa SSW 12.9 km/h 20.9 km/h 92 % 0 mm 0 W/m2
23:11 4.3 °C 3.1 °C 1008.7 hPa SSW 8 km/h 12.9 km/h 92 % 0 mm 0 W/m2
23:16 4.3 °C 3.1 °C 1008.7 hPa SSW 4.8 km/h 12.9 km/h 92 % 0 mm 0 W/m2
23:21 4.2 °C 3 °C 1008.4 hPa SSW 11.3 km/h 17.7 km/h 92 % 0 mm 0 W/m2
23:26 4.2 °C 3.2 °C 1008.4 hPa SSW 4.8 km/h 11.3 km/h 93 % 0 mm 0 W/m2
23:31 4.2 °C 3.2 °C 1008.4 hPa WSW 4.8 km/h 8 km/h 93 % 0 mm 0 W/m2
23:36 4.2 °C 3.2 °C 1008 hPa SSW 6.4 km/h 11.3 km/h 93 % 0 mm 0 W/m2
23:41 4.2 °C 3.2 °C 1007.7 hPa SSW 8 km/h 16.1 km/h 93 % 0 mm 0 W/m2
23:46 4.2 °C 3.2 °C 1008 hPa SSW 11.3 km/h 16.1 km/h 93 % 0 mm 0 W/m2
23:51 4.2 °C 3.2 °C 1007.7 hPa SW 9.7 km/h 16.1 km/h 93 % 0 mm 0 W/m2
23:56 4.2 °C 3.2 °C 1007.7 hPa SSW 9.7 km/h 19.3 km/h 93 % 0 mm 0 W/m2
Delerius-Weather
Compliments of Weather Underground - 2.25 mb

Data updates at regular intervals.